Terminal Aerodrome Forecast
Issued by NWS Caribou, ME

Home | Current Version | Previous Version | Text Only | Print | Product List | Glossary On
Versions: 1 2 3 4 5 6 7 8 9 10 11 12 13 14 15 16 17 18
000
FTUS41 KCAR 240545 CCA
TAFBGR
TAF COR
KBGR 240545Z 2406/2506 25005KT 6SM BR SCT250
     FM240800 00000KT 2SM BR BKN001
     FM241400 00000KT P6SM BKN250
     FM241700 00000KT P6SM OVC015
     FM241800 VRB03KT 3SM -RA OVC015
     FM242300 00000KT 3SM -RA OVC001
     FM250300 00000KT P6SM OVC003=

USA.gov is the U.S. government's official web portal to all federal, state and local government web resources and services.